INFORMACIÓN METAR y TAF
METAR FOR LEPA
ADDS - METARS form results

(2122 UTC 23 October 2019)
Data provider http://aviationweather.gov/metar/data/
 
METAR text: LEPA 232100Z VRB01KT 9999 FEW030 15/12 Q1011 NOSIG
Conditions at: LEPA (PALMA DE MALLORC, ES) observed 2100 UTC 23 October 2019
Temperature: 15.0°C (59°F)
Dewpoint: 12.0°C (54°F) [RH = 82%]
Pressure (altimeter): 29.85 inches Hg (1011.0 mb)
Winds: variable direction winds at 1 MPH (1 knots; 0.5 m/s)
Visibility: 6 or more miles (10+ km)
Ceiling: at least 12,000 feet AGL
Clouds: few clouds at 3000 feet AGL
Weather: no significant weather observed at this time

METAR text: LEPA 232030Z 05005KT 020V080 9999 FEW030 14/12 Q1011 NOSIG
Conditions at: LEPA (PALMA DE MALLORC, ES) observed 2030 UTC 23 October 2019
Temperature: 14.0°C (57°F)
Dewpoint: 12.0°C (54°F) [RH = 88%]
Pressure (altimeter): 29.85 inches Hg (1011.0 mb)
Winds: from the NE (50 degrees) at 6 MPH (5 knots; 2.6 m/s)
Visibility: 6 or more miles (10+ km)
Ceiling: at least 12,000 feet AGL
Clouds: few clouds at 3000 feet AGL
Weather: no significant weather observed at this time

Forecast for: AMD
Text: TAF AMD LEPA 232107Z 2321/2418 VRB03KT 9999 FEW030 TX22/2412Z TN12/2406Z
Forecast period: 2100 UTC 23 October 2019 to 1000 UTC 24 October 2019
Forecast type: FROM: standard forecast or significant change
Winds: variable direction winds at 3 MPH (3 knots; 1.5 m/s)
Visibility: 6 or more miles 10+ km)
Ceiling: at least 12,000 feet AGL
Clouds: few clouds at 3000 feet AGL
Weather: no significant weather forecast for this period
Text: PROB30
Forecast period: 2100 UTC 23 October 2019 to 0600 UTC 24 October 2019
Forecast type: TEMPORARY: The following changes expected for less than half the time period
Visibility: 2.49 miles (4.01 km)
Ceiling: at least 12,000 feet AGL
Clouds: scattered clouds at 3000 feet AGL
Weather: TS SHRA  (thunderstorm, rain showers)
Text: TEMPO 2321/2406 4000 TS SHRA SCT030CB
Forecast period: 1000 to 1800 UTC 24 October 2019
Forecast type: BECOMING: Conditions expected to become as follows by 1200 UTC 24 October 2019
Winds: from the NW (320 degrees) at 12 MPH (10 knots; 5.1 m/s)
Visibility: 6 or more miles 10+ km)
Ceiling: at least 12,000 feet AGL
Clouds: few clouds at 3000 feet AGL
Weather: no significant weather forecast for this period

 MAPA DE AEROPUERTO

 INFORMACIÓN DE PISTA

 FRECUANCIAS DEL AEROPUERTO
Tipo APP Nombre APP Frecuencia 118.95 MHZ
Tipo ATIS Nombre ATIS Frecuencia 119.25 MHZ
Tipo CLD Nombre CLNC DEL Frecuencia 121.6 MHZ
Tipo GND Nombre GND Frecuencia 121.7 MHZ
Tipo OPS Nombre OPS Frecuencia 130.25 MHZ
Tipo TWR Nombre TWR Frecuencia 118.3 MHZ

 RADIO AYUDAS DEL AEROPUERTO